📊 Raw Sensor Data
Showing records 51451 to 51475 of 85,148 total
| ID | Distance (ft) | Battery V | Battery A | Int Temp (°F) | Int Humid (%) | Ext Temp (°F) | Solar V | RSSI | SNR | Time Stamp |
|---|---|---|---|---|---|---|---|---|---|---|
| 33710 | 14.9 | 3.91 | -5 | 52 | 39 | 54 | 0.00 | -73 | 8 | 02/28/2025 09:30 PM |
| 33709 | 14.9 | 3.97 | -5 | 51 | 39 | 54 | 0.00 | -74 | 8 | 02/28/2025 09:15 PM |
| 33708 | 14.9 | 3.92 | -5 | 51 | 40 | 54 | 0.00 | -74 | 7 | 02/28/2025 09:00 PM |
| 33707 | 14.9 | 3.92 | -5 | 52 | 40 | 53 | 0.00 | -74 | 8 | 02/28/2025 08:45 PM |
| 33706 | 14.9 | 3.97 | -5 | 52 | 40 | 54 | 0.10 | -74 | 8 | 02/28/2025 08:30 PM |
| 33705 | 14.9 | 3.92 | -5 | 54 | 40 | 54 | 0.00 | -74 | 8 | 02/28/2025 08:15 PM |
| 33704 | 14.9 | 3.92 | -5 | 54 | 40 | 56 | 0.00 | -74 | 8 | 02/28/2025 08:00 PM |
| 33703 | 14.9 | 3.92 | -5 | 55 | 41 | 55 | 0.00 | -74 | 8 | 02/28/2025 07:45 PM |
| 33702 | 14.9 | 3.98 | -5 | 55 | 42 | 56 | 0.00 | -74 | 8 | 02/28/2025 07:30 PM |
| 33701 | 14.9 | 3.92 | -5 | 56 | 42 | 56 | 0.00 | -75 | 8 | 02/28/2025 07:15 PM |
| 33700 | 14.9 | 3.92 | -5 | 58 | 43 | 57 | 0.10 | -75 | 8 | 02/28/2025 07:00 PM |
| 33699 | 14.9 | 3.98 | -5 | 60 | 43 | 61 | 0.00 | -74 | 8 | 02/28/2025 06:45 PM |
| 33698 | 14.9 | 3.92 | -5 | 62 | 44 | 63 | 0.00 | -74 | 5 | 02/28/2025 06:30 PM |
| 33697 | 14.9 | 3.98 | -5 | 64 | 45 | 65 | 0.70 | -75 | 8 | 02/28/2025 06:15 PM |
| 33696 | 15.0 | 4.00 | 5 | 72 | 43 | 68 | 4.50 | -75 | 7 | 02/28/2025 05:45 PM |
| 33695 | 15.0 | 4.05 | 10 | 76 | 41 | 70 | 4.50 | -75 | 7 | 02/28/2025 05:30 PM |
| 33694 | 15.0 | 4.04 | 6 | 79 | 40 | 71 | 5.10 | -75 | 8 | 02/28/2025 05:15 PM |
| 33693 | 15.0 | 4.04 | 6 | 80 | 40 | 72 | 5.10 | -75 | 7 | 02/28/2025 05:00 PM |
| 33692 | 14.9 | 4.04 | 6 | 80 | 40 | 73 | 5.10 | -74 | 8 | 02/28/2025 04:45 PM |
| 33691 | 15.0 | 3.98 | 0 | 83 | 39 | 73 | 5.10 | -75 | 7 | 02/28/2025 04:30 PM |
| 33690 | 15.0 | 3.97 | 6 | 84 | 39 | 74 | 5.10 | -74 | 8 | 02/28/2025 04:15 PM |
| 33689 | 15.0 | 3.98 | 6 | 87 | 38 | 74 | 5.10 | -74 | 7 | 02/28/2025 04:00 PM |
| 33688 | 15.0 | 3.97 | 0 | 88 | 37 | 74 | 5.10 | -74 | 7 | 02/28/2025 03:45 PM |
| 33687 | 15.1 | 3.97 | 0 | 90 | 36 | 75 | 5.10 | -75 | 8 | 02/28/2025 03:15 PM |
| 33686 | 15.1 | 3.97 | 0 | 90 | 35 | 74 | 5.10 | -74 | 7 | 02/28/2025 02:45 PM |